sensor_id;sensor_type;location;lat;lon;timestamp;P1;durP1;ratioP1;P2;durP2;ratioP2
6862;SDS011;3470;48.738;9.616;2023-03-14T13:15:43;1.13;;;0.60;;
6862;SDS011;3470;48.738;9.616;2023-03-14T13:21:26;0.53;;;0.53;;
6862;SDS011;3470;48.738;9.616;2023-03-14T13:23:59;0.80;;;0.80;;
6862;SDS011;3470;48.738;9.616;2023-03-14T13:26:43;0.70;;;0.70;;
6862;SDS011;3470;48.738;9.616;2023-03-14T13:29:30;0.70;;;0.70;;
6862;SDS011;3470;48.738;9.616;2023-03-14T13:31:59;2.97;;;0.90;;
6862;SDS011;3470;48.738;9.616;2023-03-14T13:34:31;1.13;;;1.00;;
6862;SDS011;3470;48.738;9.616;2023-03-14T13:36:58;0.80;;;0.80;;
6862;SDS011;3470;48.738;9.616;2023-03-14T13:39:24;1.33;;;0.83;;
6862;SDS011;3470;48.738;9.616;2023-03-14T13:41:51;1.17;;;0.90;;
6862;SDS011;3470;48.738;9.616;2023-03-14T13:44:29;1.20;;;0.73;;
6862;SDS011;3470;48.738;9.616;2023-03-14T13:46:58;0.80;;;0.80;;
6862;SDS011;3470;48.738;9.616;2023-03-14T13:49:25;1.40;;;1.30;;
6862;SDS011;3470;48.738;9.616;2023-03-14T13:51:51;1.77;;;1.40;;
6862;SDS011;3470;48.738;9.616;2023-03-14T13:54:18;2.70;;;1.30;;
6862;SDS011;3470;48.738;9.616;2023-03-14T13:56:46;2.77;;;0.90;;
6862;SDS011;3470;48.738;9.616;2023-03-14T13:59:23;1.67;;;1.47;;
6862;SDS011;3470;48.738;9.616;2023-03-14T14:01:49;0.80;;;0.80;;
6862;SDS011;3470;48.738;9.616;2023-03-14T14:04:18;1.00;;;0.90;;
6862;SDS011;3470;48.738;9.616;2023-03-14T14:06:59;2.27;;;0.97;;
6862;SDS011;3470;48.738;9.616;2023-03-14T14:09:31;2.00;;;1.00;;
6862;SDS011;3470;48.738;9.616;2023-03-14T14:12:07;2.37;;;1.90;;
6862;SDS011;3470;48.738;9.616;2023-03-14T14:17:08;1.77;;;1.33;;
6862;SDS011;3470;48.738;9.616;2023-03-14T14:19:37;5.07;;;2.50;;
6862;SDS011;3470;48.738;9.616;2023-03-14T14:22:05;2.87;;;1.70;;
6862;SDS011;3470;48.738;9.616;2023-03-14T14:24:32;2.80;;;1.47;;
6862;SDS011;3470;48.738;9.616;2023-03-14T14:29:57;1.30;;;1.07;;
6862;SDS011;3470;48.738;9.616;2023-03-14T14:32:38;1.47;;;1.03;;
6862;SDS011;3470;48.738;9.616;2023-03-14T14:35:05;2.53;;;1.10;;
6862;SDS011;3470;48.738;9.616;2023-03-14T14:37:41;2.00;;;1.40;;
6862;SDS011;3470;48.738;9.616;2023-03-14T14:42:40;0.80;;;0.80;;
6862;SDS011;3470;48.738;9.616;2023-03-14T14:45:09;1.77;;;1.10;;
6862;SDS011;3470;48.738;9.616;2023-03-14T14:47:50;0.83;;;0.83;;
6862;SDS011;3470;48.738;9.616;2023-03-14T14:50:32;3.40;;;1.20;;
6862;SDS011;3470;48.738;9.616;2023-03-14T14:53:00;1.40;;;1.00;;
6862;SDS011;3470;48.738;9.616;2023-03-14T14:55:34;2.43;;;1.00;;
6862;SDS011;3470;48.738;9.616;2023-03-14T14:58:11;2.20;;;1.20;;
6862;SDS011;3470;48.738;9.616;2023-03-14T15:00:50;6.20;;;1.10;;
6862;SDS011;3470;48.738;9.616;2023-03-14T15:03:21;2.80;;;1.03;;
6862;SDS011;3470;48.738;9.616;2023-03-14T15:05:46;0.80;;;0.80;;
6862;SDS011;3470;48.738;9.616;2023-03-14T15:08:12;2.17;;;1.20;;
6862;SDS011;3470;48.738;9.616;2023-03-14T15:10:38;1.53;;;1.10;;
6862;SDS011;3470;48.738;9.616;2023-03-14T15:13:04;3.73;;;1.10;;
6862;SDS011;3470;48.738;9.616;2023-03-14T15:15:29;2.73;;;1.20;;
6862;SDS011;3470;48.738;9.616;2023-03-14T15:17:55;1.50;;;1.00;;
6862;SDS011;3470;48.738;9.616;2023-03-14T15:20:21;3.30;;;1.37;;
6862;SDS011;3470;48.738;9.616;2023-03-14T15:22:48;2.47;;;1.10;;
6862;SDS011;3470;48.738;9.616;2023-03-14T15:25:15;2.97;;;1.10;;
6862;SDS011;3470;48.738;9.616;2023-03-14T15:27:41;1.87;;;1.20;;
6862;SDS011;3470;48.738;9.616;2023-03-14T15:30:12;2.17;;;1.17;;
6862;SDS011;3470;48.738;9.616;2023-03-14T15:32:38;3.40;;;1.57;;
6862;SDS011;3470;48.738;9.616;2023-03-14T15:35:04;1.67;;;1.10;;
6862;SDS011;3470;48.738;9.616;2023-03-14T15:37:30;5.63;;;4.00;;
6862;SDS011;3470;48.738;9.616;2023-03-14T15:39:55;3.57;;;1.20;;
6862;SDS011;3470;48.738;9.616;2023-03-14T15:42:24;1.90;;;1.10;;
6862;SDS011;3470;48.738;9.616;2023-03-14T15:44:50;1.67;;;1.10;;
6862;SDS011;3470;48.738;9.616;2023-03-14T15:47:15;2.63;;;1.00;;
6862;SDS011;3470;48.738;9.616;2023-03-14T15:49:41;1.93;;;1.07;;
6862;SDS011;3470;48.738;9.616;2023-03-14T15:52:07;3.00;;;1.37;;
6862;SDS011;3470;48.738;9.616;2023-03-14T15:54:33;3.10;;;1.20;;
6862;SDS011;3470;48.738;9.616;2023-03-14T15:56:59;2.97;;;1.17;;
6862;SDS011;3470;48.738;9.616;2023-03-14T15:59:25;4.37;;;1.30;;
6862;SDS011;3470;48.738;9.616;2023-03-14T16:01:51;2.23;;;1.00;;
6862;SDS011;3470;48.738;9.616;2023-03-14T16:04:17;2.30;;;1.43;;
6862;SDS011;3470;48.738;9.616;2023-03-14T16:06:43;2.63;;;1.43;;
6862;SDS011;3470;48.738;9.616;2023-03-14T16:09:10;3.43;;;1.80;;
6862;SDS011;3470;48.738;9.616;2023-03-14T16:11:37;3.77;;;2.20;;
6862;SDS011;3470;48.738;9.616;2023-03-14T16:14:02;5.43;;;1.50;;
6862;SDS011;3470;48.738;9.616;2023-03-14T16:16:28;2.80;;;1.23;;
6862;SDS011;3470;48.738;9.616;2023-03-14T16:18:54;2.13;;;1.10;;
6862;SDS011;3470;48.738;9.616;2023-03-14T16:21:19;3.10;;;1.40;;
6862;SDS011;3470;48.738;9.616;2023-03-14T16:23:46;6.50;;;1.30;;
6862;SDS011;3470;48.738;9.616;2023-03-14T16:26:12;2.47;;;1.20;;
6862;SDS011;3470;48.738;9.616;2023-03-14T16:28:40;2.17;;;1.30;;
6862;SDS011;3470;48.738;9.616;2023-03-14T16:31:07;3.67;;;1.30;;
6862;SDS011;3470;48.738;9.616;2023-03-14T16:33:40;3.23;;;1.20;;
6862;SDS011;3470;48.738;9.616;2023-03-14T16:36:07;2.13;;;1.50;;
6862;SDS011;3470;48.738;9.616;2023-03-14T16:38:36;1.93;;;1.47;;
6862;SDS011;3470;48.738;9.616;2023-03-14T16:41:08;4.10;;;1.30;;
6862;SDS011;3470;48.738;9.616;2023-03-14T16:43:37;3.37;;;1.40;;
6862;SDS011;3470;48.738;9.616;2023-03-14T16:46:03;5.23;;;1.60;;
6862;SDS011;3470;48.738;9.616;2023-03-14T16:48:30;5.03;;;1.57;;
6862;SDS011;3470;48.738;9.616;2023-03-14T16:50:56;3.10;;;1.10;;
6862;SDS011;3470;48.738;9.616;2023-03-14T16:53:22;3.13;;;1.47;;
6862;SDS011;3470;48.738;9.616;2023-03-14T16:55:48;2.57;;;1.20;;
6862;SDS011;3470;48.738;9.616;2023-03-14T16:58:15;4.73;;;1.33;;
6862;SDS011;3470;48.738;9.616;2023-03-14T17:00:43;2.53;;;1.43;;
6862;SDS011;3470;48.738;9.616;2023-03-14T17:03:10;3.13;;;1.40;;
6862;SDS011;3470;48.738;9.616;2023-03-14T17:05:35;1.53;;;1.20;;
6862;SDS011;3470;48.738;9.616;2023-03-14T17:08:01;4.13;;;1.40;;
6862;SDS011;3470;48.738;9.616;2023-03-14T17:10:27;2.07;;;1.27;;
6862;SDS011;3470;48.738;9.616;2023-03-14T17:12:53;3.60;;;1.43;;
6862;SDS011;3470;48.738;9.616;2023-03-14T17:15:19;2.13;;;1.37;;
6862;SDS011;3470;48.738;9.616;2023-03-14T17:17:44;3.20;;;1.60;;
6862;SDS011;3470;48.738;9.616;2023-03-14T17:20:10;4.07;;;1.67;;
6862;SDS011;3470;48.738;9.616;2023-03-14T17:22:36;2.57;;;1.30;;
6862;SDS011;3470;48.738;9.616;2023-03-14T17:25:01;4.17;;;2.00;;
6862;SDS011;3470;48.738;9.616;2023-03-14T17:27:27;3.53;;;1.37;;
6862;SDS011;3470;48.738;9.616;2023-03-14T17:29:53;2.23;;;1.70;;
6862;SDS011;3470;48.738;9.616;2023-03-14T17:32:19;3.23;;;1.40;;
6862;SDS011;3470;48.738;9.616;2023-03-14T17:34:45;3.03;;;1.30;;
6862;SDS011;3470;48.738;9.616;2023-03-14T17:37:11;5.57;;;1.50;;
6862;SDS011;3470;48.738;9.616;2023-03-14T17:39:36;3.97;;;1.77;;
6862;SDS011;3470;48.738;9.616;2023-03-14T17:42:03;3.67;;;1.40;;
6862;SDS011;3470;48.738;9.616;2023-03-14T17:44:29;2.60;;;1.70;;
6862;SDS011;3470;48.738;9.616;2023-03-14T17:46:55;3.40;;;1.33;;
6862;SDS011;3470;48.738;9.616;2023-03-14T17:49:22;3.77;;;1.97;;
6862;SDS011;3470;48.738;9.616;2023-03-14T17:51:47;2.80;;;1.30;;
6862;SDS011;3470;48.738;9.616;2023-03-14T17:54:13;3.07;;;1.90;;
6862;SDS011;3470;48.738;9.616;2023-03-14T17:56:38;3.17;;;2.30;;
6862;SDS011;3470;48.738;9.616;2023-03-14T17:59:08;4.77;;;3.00;;
6862;SDS011;3470;48.738;9.616;2023-03-14T18:01:34;3.70;;;1.40;;
6862;SDS011;3470;48.738;9.616;2023-03-14T18:04:00;5.03;;;2.20;;
6862;SDS011;3470;48.738;9.616;2023-03-14T18:06:26;2.60;;;1.40;;
6862;SDS011;3470;48.738;9.616;2023-03-14T18:08:55;1.77;;;1.30;;
6862;SDS011;3470;48.738;9.616;2023-03-14T18:11:22;2.63;;;1.30;;
6862;SDS011;3470;48.738;9.616;2023-03-14T18:13:48;2.47;;;1.17;;
6862;SDS011;3470;48.738;9.616;2023-03-14T18:16:14;6.30;;;1.83;;
6862;SDS011;3470;48.738;9.616;2023-03-14T18:18:41;3.07;;;2.00;;
6862;SDS011;3470;48.738;9.616;2023-03-14T18:21:10;2.20;;;1.57;;
6862;SDS011;3470;48.738;9.616;2023-03-14T18:23:37;2.60;;;1.70;;
6862;SDS011;3470;48.738;9.616;2023-03-14T18:26:02;4.17;;;1.50;;
6862;SDS011;3470;48.738;9.616;2023-03-14T18:28:28;3.10;;;1.50;;
6862;SDS011;3470;48.738;9.616;2023-03-14T18:31:01;4.93;;;1.60;;
6862;SDS011;3470;48.738;9.616;2023-03-14T18:33:27;2.93;;;1.53;;
6862;SDS011;3470;48.738;9.616;2023-03-14T18:35:53;2.50;;;1.40;;
6862;SDS011;3470;48.738;9.616;2023-03-14T18:38:18;3.57;;;1.40;;
6862;SDS011;3470;48.738;9.616;2023-03-14T18:40:44;1.97;;;1.30;;
6862;SDS011;3470;48.738;9.616;2023-03-14T18:43:10;1.90;;;1.30;;
6862;SDS011;3470;48.738;9.616;2023-03-14T18:45:35;2.07;;;1.30;;
6862;SDS011;3470;48.738;9.616;2023-03-14T18:48:01;5.43;;;1.53;;
6862;SDS011;3470;48.738;9.616;2023-03-14T18:50:27;2.30;;;1.50;;
6862;SDS011;3470;48.738;9.616;2023-03-14T18:52:53;1.10;;;1.00;;
6862;SDS011;3470;48.738;9.616;2023-03-14T18:55:18;1.67;;;1.23;;
6862;SDS011;3470;48.738;9.616;2023-03-14T18:57:44;1.87;;;1.00;;
6862;SDS011;3470;48.738;9.616;2023-03-14T19:00:10;2.03;;;1.40;;
6862;SDS011;3470;48.738;9.616;2023-03-14T19:02:37;2.83;;;1.30;;
6862;SDS011;3470;48.738;9.616;2023-03-14T19:05:04;2.90;;;1.20;;
6862;SDS011;3470;48.738;9.616;2023-03-14T19:07:30;4.20;;;1.10;;
6862;SDS011;3470;48.738;9.616;2023-03-14T19:09:58;2.23;;;1.90;;
6862;SDS011;3470;48.738;9.616;2023-03-14T19:12:24;1.63;;;1.50;;
6862;SDS011;3470;48.738;9.616;2023-03-14T19:14:51;1.37;;;1.27;;
6862;SDS011;3470;48.738;9.616;2023-03-14T19:17:16;2.33;;;1.20;;
6862;SDS011;3470;48.738;9.616;2023-03-14T19:19:42;1.30;;;1.20;;
6862;SDS011;3470;48.738;9.616;2023-03-14T19:22:07;2.03;;;1.50;;
6862;SDS011;3470;48.738;9.616;2023-03-14T19:24:33;3.23;;;1.73;;
6862;SDS011;3470;48.738;9.616;2023-03-14T19:26:59;2.10;;;1.90;;
6862;SDS011;3470;48.738;9.616;2023-03-14T19:29:24;9.90;;;5.00;;
6862;SDS011;3470;48.738;9.616;2023-03-14T19:31:50;2.93;;;2.37;;
6862;SDS011;3470;48.738;9.616;2023-03-14T19:34:16;4.67;;;2.70;;
6862;SDS011;3470;48.738;9.616;2023-03-14T19:36:42;6.27;;;3.07;;
6862;SDS011;3470;48.738;9.616;2023-03-14T19:39:07;4.50;;;3.30;;
6862;SDS011;3470;48.738;9.616;2023-03-14T19:41:33;8.90;;;3.23;;
6862;SDS011;3470;48.738;9.616;2023-03-14T19:43:59;5.57;;;3.10;;
6862;SDS011;3470;48.738;9.616;2023-03-14T19:46:25;7.60;;;4.23;;
6862;SDS011;3470;48.738;9.616;2023-03-14T19:48:51;4.47;;;2.63;;
6862;SDS011;3470;48.738;9.616;2023-03-14T19:51:19;6.93;;;3.33;;
6862;SDS011;3470;48.738;9.616;2023-03-14T19:53:48;7.67;;;4.00;;
6862;SDS011;3470;48.738;9.616;2023-03-14T19:56:14;7.20;;;4.00;;
6862;SDS011;3470;48.738;9.616;2023-03-14T19:58:40;7.07;;;4.70;;
6862;SDS011;3470;48.738;9.616;2023-03-14T20:01:06;12.40;;;6.80;;
6862;SDS011;3470;48.738;9.616;2023-03-14T20:03:33;9.63;;;5.90;;
6862;SDS011;3470;48.738;9.616;2023-03-14T20:06:02;7.60;;;4.00;;
6862;SDS011;3470;48.738;9.616;2023-03-14T20:08:32;15.10;;;6.20;;
6862;SDS011;3470;48.738;9.616;2023-03-14T20:10:57;8.70;;;5.43;;
6862;SDS011;3470;48.738;9.616;2023-03-14T20:13:23;6.13;;;2.87;;
6862;SDS011;3470;48.738;9.616;2023-03-14T20:15:49;3.43;;;2.50;;
6862;SDS011;3470;48.738;9.616;2023-03-14T20:18:16;4.97;;;2.77;;
6862;SDS011;3470;48.738;9.616;2023-03-14T20:20:42;3.67;;;2.57;;
6862;SDS011;3470;48.738;9.616;2023-03-14T20:23:08;8.77;;;4.93;;
6862;SDS011;3470;48.738;9.616;2023-03-14T20:25:33;6.17;;;2.83;;
6862;SDS011;3470;48.738;9.616;2023-03-14T20:27:59;19.20;;;9.03;;
6862;SDS011;3470;48.738;9.616;2023-03-14T20:30:26;9.43;;;3.93;;
6862;SDS011;3470;48.738;9.616;2023-03-14T20:32:54;5.73;;;2.57;;
6862;SDS011;3470;48.738;9.616;2023-03-14T20:35:19;6.43;;;3.50;;
6862;SDS011;3470;48.738;9.616;2023-03-14T20:37:52;8.23;;;4.23;;
6862;SDS011;3470;48.738;9.616;2023-03-14T20:40:20;9.87;;;6.20;;
6862;SDS011;3470;48.738;9.616;2023-03-14T20:42:47;10.73;;;3.40;;
6862;SDS011;3470;48.738;9.616;2023-03-14T20:45:14;11.33;;;5.33;;
6862;SDS011;3470;48.738;9.616;2023-03-14T20:47:39;17.37;;;8.70;;
6862;SDS011;3470;48.738;9.616;2023-03-14T20:50:08;6.10;;;3.50;;
6862;SDS011;3470;48.738;9.616;2023-03-14T20:52:34;9.77;;;4.33;;
6862;SDS011;3470;48.738;9.616;2023-03-14T20:55:02;5.57;;;3.77;;
6862;SDS011;3470;48.738;9.616;2023-03-14T20:57:28;6.33;;;4.30;;
6862;SDS011;3470;48.738;9.616;2023-03-14T20:59:54;7.20;;;4.73;;
6862;SDS011;3470;48.738;9.616;2023-03-14T21:02:20;7.90;;;4.17;;
6862;SDS011;3470;48.738;9.616;2023-03-14T21:04:45;9.07;;;5.77;;
6862;SDS011;3470;48.738;9.616;2023-03-14T21:07:11;11.30;;;6.40;;
6862;SDS011;3470;48.738;9.616;2023-03-14T21:09:37;9.90;;;5.50;;
6862;SDS011;3470;48.738;9.616;2023-03-14T21:12:03;9.77;;;5.07;;
6862;SDS011;3470;48.738;9.616;2023-03-14T21:14:29;10.50;;;5.07;;
6862;SDS011;3470;48.738;9.616;2023-03-14T21:16:55;11.37;;;5.33;;
6862;SDS011;3470;48.738;9.616;2023-03-14T21:19:22;20.30;;;8.50;;
6862;SDS011;3470;48.738;9.616;2023-03-14T21:21:55;12.27;;;5.93;;
6862;SDS011;3470;48.738;9.616;2023-03-14T21:24:25;9.57;;;4.43;;
6862;SDS011;3470;48.738;9.616;2023-03-14T21:26:52;18.40;;;8.83;;
6862;SDS011;3470;48.738;9.616;2023-03-14T21:29:18;16.63;;;7.63;;
6862;SDS011;3470;48.738;9.616;2023-03-14T21:31:45;15.37;;;7.67;;
6862;SDS011;3470;48.738;9.616;2023-03-14T21:34:11;15.93;;;8.63;;
6862;SDS011;3470;48.738;9.616;2023-03-14T21:36:37;8.07;;;5.57;;
6862;SDS011;3470;48.738;9.616;2023-03-14T21:39:02;6.70;;;4.90;;
6862;SDS011;3470;48.738;9.616;2023-03-14T21:41:28;8.20;;;4.47;;
6862;SDS011;3470;48.738;9.616;2023-03-14T21:43:53;5.17;;;3.83;;
6862;SDS011;3470;48.738;9.616;2023-03-14T21:46:19;5.77;;;3.93;;
6862;SDS011;3470;48.738;9.616;2023-03-14T21:48:45;6.37;;;4.30;;
6862;SDS011;3470;48.738;9.616;2023-03-14T21:51:11;6.00;;;3.60;;
6862;SDS011;3470;48.738;9.616;2023-03-14T21:53:37;8.97;;;6.40;;
6862;SDS011;3470;48.738;9.616;2023-03-14T21:56:03;6.37;;;3.77;;
6862;SDS011;3470;48.738;9.616;2023-03-14T21:58:29;9.73;;;5.20;;
6862;SDS011;3470;48.738;9.616;2023-03-14T22:00:59;19.90;;;9.90;;
6862;SDS011;3470;48.738;9.616;2023-03-14T22:03:26;6.53;;;3.70;;
6862;SDS011;3470;48.738;9.616;2023-03-14T22:05:52;10.77;;;4.80;;
6862;SDS011;3470;48.738;9.616;2023-03-14T22:08:18;11.23;;;4.83;;
6862;SDS011;3470;48.738;9.616;2023-03-14T22:10:48;5.87;;;2.80;;
6862;SDS011;3470;48.738;9.616;2023-03-14T22:13:15;11.90;;;6.33;;
6862;SDS011;3470;48.738;9.616;2023-03-14T22:15:42;4.73;;;2.17;;
6862;SDS011;3470;48.738;9.616;2023-03-14T22:18:08;2.93;;;2.00;;
6862;SDS011;3470;48.738;9.616;2023-03-14T22:20:33;5.17;;;2.40;;
6862;SDS011;3470;48.738;9.616;2023-03-14T22:22:59;3.57;;;1.90;;
6862;SDS011;3470;48.738;9.616;2023-03-14T22:25:25;3.80;;;1.80;;
6862;SDS011;3470;48.738;9.616;2023-03-14T22:27:51;7.10;;;2.00;;
6862;SDS011;3470;48.738;9.616;2023-03-14T22:30:16;3.90;;;1.90;;
6862;SDS011;3470;48.738;9.616;2023-03-14T22:32:42;2.27;;;1.73;;
6862;SDS011;3470;48.738;9.616;2023-03-14T22:35:08;3.87;;;1.80;;
6862;SDS011;3470;48.738;9.616;2023-03-14T22:37:34;3.40;;;1.90;;
6862;SDS011;3470;48.738;9.616;2023-03-14T22:40:00;3.00;;;2.23;;
6862;SDS011;3470;48.738;9.616;2023-03-14T22:42:27;6.00;;;3.80;;
6862;SDS011;3470;48.738;9.616;2023-03-14T22:44:52;3.47;;;2.30;;
6862;SDS011;3470;48.738;9.616;2023-03-14T22:47:18;5.03;;;2.20;;
6862;SDS011;3470;48.738;9.616;2023-03-14T22:49:44;4.13;;;2.20;;
6862;SDS011;3470;48.738;9.616;2023-03-14T22:52:09;5.00;;;2.77;;
6862;SDS011;3470;48.738;9.616;2023-03-14T22:54:35;5.57;;;3.27;;
6862;SDS011;3470;48.738;9.616;2023-03-14T22:57:01;7.67;;;5.00;;
6862;SDS011;3470;48.738;9.616;2023-03-14T22:59:26;5.43;;;3.13;;
6862;SDS011;3470;48.738;9.616;2023-03-14T23:01:52;4.80;;;2.77;;
6862;SDS011;3470;48.738;9.616;2023-03-14T23:04:18;6.30;;;3.33;;
6862;SDS011;3470;48.738;9.616;2023-03-14T23:06:43;6.33;;;4.33;;
6862;SDS011;3470;48.738;9.616;2023-03-14T23:09:09;3.93;;;3.27;;
6862;SDS011;3470;48.738;9.616;2023-03-14T23:11:36;6.20;;;3.73;;
6862;SDS011;3470;48.738;9.616;2023-03-14T23:14:03;4.93;;;3.17;;
6862;SDS011;3470;48.738;9.616;2023-03-14T23:16:28;5.17;;;3.33;;
6862;SDS011;3470;48.738;9.616;2023-03-14T23:18:54;7.70;;;3.37;;
6862;SDS011;3470;48.738;9.616;2023-03-14T23:21:21;3.63;;;3.27;;
6862;SDS011;3470;48.738;9.616;2023-03-14T23:23:47;4.20;;;3.80;;
6862;SDS011;3470;48.738;9.616;2023-03-14T23:26:15;4.10;;;3.17;;
6862;SDS011;3470;48.738;9.616;2023-03-14T23:28:42;4.13;;;3.73;;
6862;SDS011;3470;48.738;9.616;2023-03-14T23:31:09;4.53;;;4.13;;
6862;SDS011;3470;48.738;9.616;2023-03-14T23:33:38;4.23;;;3.50;;
6862;SDS011;3470;48.738;9.616;2023-03-14T23:36:04;4.20;;;3.60;;
6862;SDS011;3470;48.738;9.616;2023-03-14T23:38:30;4.00;;;3.20;;
6862;SDS011;3470;48.738;9.616;2023-03-14T23:40:57;4.70;;;3.60;;
6862;SDS011;3470;48.738;9.616;2023-03-14T23:43:23;3.47;;;2.67;;
6862;SDS011;3470;48.738;9.616;2023-03-14T23:45:50;4.53;;;2.73;;
6862;SDS011;3470;48.738;9.616;2023-03-14T23:48:18;2.50;;;2.30;;
6862;SDS011;3470;48.738;9.616;2023-03-14T23:50:54;2.57;;;2.30;;
6862;SDS011;3470;48.738;9.616;2023-03-14T23:53:20;2.80;;;2.40;;
6862;SDS011;3470;48.738;9.616;2023-03-14T23:55:46;6.10;;;3.20;;
6862;SDS011;3470;48.738;9.616;2023-03-14T23:58:11;3.07;;;2.77;;
